Situs API Video Gratis Terbaik

AVDBAPI.COM

Cari katalog, periksa data, dan salin URL API bersih dari satu dasbor cepat.

Telegram Gabung komunitas Telegram untuk update!
Today
0
Pembaruan Hari Ini
Censored
314089
Video Disensor
Total
474268
Total Video

Daftar Video

Data terbaru diurutkan berdasarkan waktu pembaruan.

ID Nama CODE Kategori Diperbarui API
263990 061521-01 Instruktur Aromaterapi Cantik Menyembuhkan Hati dan Kontolku 061521-01 Tanpa sensor 2025-08-29 01:16:40 API
263989 111616-004 Resume Telanjang Maki Hojo 111616-004 Tanpa sensor 2025-08-29 01:16:30 API
263988 FC2-PPV-4500781 [Face] 70% pesona pria matang. Tubuh yang indah sedang kawin, kehidupan yang dinamis dan harmonis. ③Tinggal dalam latar estetika era modern FC2-PPV-4500781 Tanpa sensor 2025-08-29 01:16:20 API
263987 C0930-KI211026 Naomi Wakui Wanita Matang 40 Tahun C0930-KI211026 Tanpa sensor 2025-08-29 01:16:10 API
263986 031222-001-2 Gak Tahan Pengen Masukin Terus! Pelayan Rumah Berpantat Seksi Hinata 031222-001-2 Tanpa sensor 2025-08-29 01:16:00 API
263985 H4610-KI220630 Rimi Yano Cantik Berusia 24 Tahun H4610-KI220630 Tanpa sensor 2025-08-29 01:15:50 API
263984 XSJKY097 Balas Budi Sang Pengemis XSJKY097 AV China 2025-08-29 01:15:40 API
263983 092420_001 Ciuman Panas dan Percintaan Fisik yang Menggairahkan bersama Maki Koizumi 092420_001 Tanpa sensor 2025-08-29 01:15:30 API
263982 SR025 Rekaman Rekrutmen Lulusan Baru No.025 Yuko [Rekaman Pribadi] SR025 Tanpa sensor 2025-08-29 01:15:20 API
263981 H-220329 Takako Oishi Wanita 30 Tahun H-220329 Tanpa sensor 2025-08-29 01:15:10 API
263980 030221-441 Pas Panggil Layanan, Malah Saudara Sepupu yang Datang! 030221-441 Tanpa sensor 2025-08-29 01:15:00 API
263979 HEYZO-2707 Ayane Sakurai [Ayane so much] Ayane Sakurai Dijadikan Mainan! HEYZO-2707 Tanpa sensor 2025-08-29 01:14:50 API
263978 PME096 Layanan Tambahan Si Gadis Delivery: Rahasia Kenapa Kurir Makanan Ini Begitu Populer PME096 AV China 2025-08-29 01:14:40 API
263977 061721-01 Gatjiri ~ Terus-terusan diperas sampai lubang anus tidak bisa berhenti berdenyut ~ 061721-01 Tanpa sensor 2025-08-29 01:14:30 API
263976 031522-001 Koleksi Terbaik Reina Hiiragi 031522-001 Tanpa sensor 2025-08-29 01:14:20 API
263975 CARIBBEANCOMPR-111816_003 8 wanita matang cantik yang tenggelam dalam perselingkuhan panas dengan bos mereka CARIBBEANCOMPR-111816_003 Tanpa sensor 2025-08-29 01:14:10 API
263974 H-220630 Rimi Yano H-220630 Tanpa sensor 2025-08-29 01:14:00 API
263973 CUS-1834 Teman Baik Istri Meminjam Rahim Untuk Melahirkan Anak CUS-1834 AV China 2025-08-29 01:13:50 API
263972 C0930-KI211028 Taeko Kashiya Wanita Cantik Usia 28 Tahun C0930-KI211028 Tanpa sensor 2025-08-29 01:13:40 API
263971 HEYZO-2720 Mei [Mei] Area Terlarang: Tempat Para Guru Yang Ingin Dimanja Oleh Payudara Montok Menjadi Kecanduan Dan Lupa Segalanya HEYZO-2720 Tanpa sensor 2025-08-29 01:13:30 API
263970 092620_001 Wanita yang menggoda pria dengan payudara dingin yang menggoda 092620_001 Tanpa sensor 2025-08-29 01:13:20 API
263969 FC2-PPV-4500545 Harga terbatas 3 hari cuma 1980pt! Kunana [Seri Fashion] Wanita cantik dengan 3 payudara besar! Video baru rilis terus! [Lonceng jam 3:30 pagi] Beli sekarang FC2-PPV-4500545 Tanpa sensor 2025-08-29 01:13:10 API
263968 H0930-KI220331 Mayumi Aiba Usia 40 Tahun yang Seksi H0930-KI220331 Tanpa sensor 2025-08-29 01:13:00 API
263967 061821-01 Aku bakal isap sampai ke pangkal tenggorokanmu 061821-01 Tanpa sensor 2025-08-29 01:12:50 API
263966 030421-442 Buku Foto Memek Istri Orang Edisi Deluxe 030421-442 Tanpa sensor 2025-08-29 01:12:40 API
263965 CUS-1833 Episode Tambahan ep28 Ayah Sedang Sangat Marah CUS-1833 AV China 2025-08-29 01:12:30 API
263964 WPSL-080 Tukang Peleceh Puting Terbalik di Restoran @Hazuki Mion WPSL-080 Disensor (Mosaik) 2025-08-29 01:12:20 API
263963 C0930-TK0045 Babe Seksi 28 Tahun Aoi Katsuse C0930-TK0045 Tanpa sensor 2025-08-29 01:12:10 API
263962 111816-002 Wawancara Amatir: Gak Bisa Langsung Syuting? Aku Butuh Duit Banget ~ 111816-002 Tanpa sensor 2025-08-29 01:12:00 API
263961 H4610-KI220702 Gold Pack: Gadis 20 Tahun Yang Menggoda H4610-KI220702 Tanpa sensor 2025-08-29 01:11:50 API
263960 FC2-PPV-4501794 Gadis Menhera Berpajamas Bricco Mitsuha (20) - Payudara Putih Indah & Seksi FC2-PPV-4501794 Tanpa sensor 2025-08-29 01:11:40 API
263959 RED-11492: Chisato Mukai RED-114-B Tanpa sensor 2025-08-29 01:11:30 API
263958 XSJYH06 Tukang Bersih XSJYH06 AV China 2025-08-29 01:11:20 API
263957 031822-001 Pelayan nakal Aya Tanaka siap melayani apa pun yang kamu mau! 031822-001 Tanpa sensor 2025-08-29 01:11:10 API
263956 030621-443 Wanita Matang Tanpa Makeup ~ Bibi Berwajah Cool ~ 030621-443 Tanpa sensor 2025-08-29 01:11:00 API
263955 092920_001 Kencan Menggairahkan: Langsung Sikat Pacar yang Mencurigakan! 092920_001 Tanpa sensor 2025-08-29 01:10:50 API
263954 061921-01 Lihat cara cewek ini bekerja - Tolong ukur payudara E-cup yang melimpah ini - 061921-01 Tanpa sensor 2025-08-29 01:10:40 API
263953 HEYZO-2708 Asaka Sera [Asaka Sera] Terjerumus ke hubungan liar dengan OL montok yang jago banget ngisap HEYZO-2708 Tanpa sensor 2025-08-29 01:10:30 API
263952 C0930-KI211031 Wanita Matang 42 Tahun Yukie Toyoda yang Menggoda C0930-KI211031 Tanpa sensor 2025-08-29 01:10:20 API
263951 FSOG113 Ngentot Teknisi Jepang Berdada Besar FSOG113 AV China 2025-08-29 01:10:10 API
263950 H4610-ORI1784 Sayaka Miyama Gadis Cantik Usia 22 Tahun H4610-ORI1784 Tanpa sensor 2025-08-29 01:10:00 API
263949 031922-001 Seks Champagne Hot: Creampie Melimpah Anri Kizuki di Malam yang Menggairahkan! 031922-001 Tanpa sensor 2025-08-29 01:09:50 API
263948 H0930-KI220403 Matsui Kana Usia 25 Tahun H0930-KI220403 Tanpa sensor 2025-08-29 01:09:40 API
263947 111816-006 Boynsle ~ Show Festival Pria Milik Ratu Minako ~ 111816-006 Tanpa sensor 2025-08-29 01:09:30 API
263946 FC2-PPV-4501274 Menes, 18 tahun, si cantik bermông besar yang menggoda! Sebuah misi aneh telah ditetapkan. [Review belum selesai] FC2-PPV-4501274 Tanpa sensor 2025-08-29 01:09:20 API
263944 030921-444 Adik perempuan sahabatku ternyata beneran pelacur penggoda! 030921-444 Tanpa sensor 2025-08-29 01:09:00 API
263943 CUS-1837 Spesial Outdoor CUS-1837 AV China 2025-08-29 01:08:50 API
263942 100120_001 Sari Nakamura 100120_001 Tanpa sensor 2025-08-29 01:08:40 API
263941 C0930-KI211102 Narumi Nakane Gadis 20 Tahun C0930-KI211102 Tanpa sensor 2025-08-29 01:08:30 API
263940 062221-01 Aku Diperkenalkan Dengan Cewek Gila Seks Berdada Besar dan Kulit Lembap Seksi 062221-01 Tanpa sensor 2025-08-29 01:08:20 API